sensor_id;sensor_type;location;lat;lon;timestamp;P1;durP1;ratioP1;P2;durP2;ratioP2
43996;SDS011;34318;45.818;15.964;2023-02-01T00:00:25;9.80;;;6.35;;
43996;SDS011;34318;45.818;15.964;2023-02-01T00:02:53;11.25;;;6.53;;
43996;SDS011;34318;45.818;15.964;2023-02-01T00:05:20;9.57;;;6.68;;
43996;SDS011;34318;45.818;15.964;2023-02-01T00:07:47;10.13;;;6.55;;
43996;SDS011;34318;45.818;15.964;2023-02-01T00:10:15;8.95;;;6.20;;
43996;SDS011;34318;45.818;15.964;2023-02-01T00:12:42;15.52;;;6.82;;
43996;SDS011;34318;45.818;15.964;2023-02-01T00:15:10;9.68;;;6.53;;
43996;SDS011;34318;45.818;15.964;2023-02-01T00:17:37;8.38;;;6.25;;
43996;SDS011;34318;45.818;15.964;2023-02-01T00:20:04;10.20;;;6.57;;
43996;SDS011;34318;45.818;15.964;2023-02-01T00:22:32;8.32;;;5.85;;
43996;SDS011;34318;45.818;15.964;2023-02-01T00:24:59;6.20;;;5.60;;
43996;SDS011;34318;45.818;15.964;2023-02-01T00:27:26;12.88;;;5.57;;
43996;SDS011;34318;45.818;15.964;2023-02-01T00:29:56;8.25;;;5.82;;
43996;SDS011;34318;45.818;15.964;2023-02-01T00:32:23;7.65;;;5.88;;
43996;SDS011;34318;45.818;15.964;2023-02-01T00:34:50;7.65;;;5.65;;
43996;SDS011;34318;45.818;15.964;2023-02-01T00:37:17;6.50;;;5.72;;
43996;SDS011;34318;45.818;15.964;2023-02-01T00:39:45;6.43;;;5.40;;
43996;SDS011;34318;45.818;15.964;2023-02-01T00:42:12;7.53;;;6.20;;
43996;SDS011;34318;45.818;15.964;2023-02-01T00:44:39;7.55;;;5.93;;
43996;SDS011;34318;45.818;15.964;2023-02-01T00:47:06;6.85;;;5.35;;
43996;SDS011;34318;45.818;15.964;2023-02-01T00:49:33;7.05;;;6.10;;
43996;SDS011;34318;45.818;15.964;2023-02-01T00:52:00;8.15;;;6.00;;
43996;SDS011;34318;45.818;15.964;2023-02-01T00:54:28;8.38;;;6.05;;
43996;SDS011;34318;45.818;15.964;2023-02-01T00:56:55;6.53;;;5.75;;
43996;SDS011;34318;45.818;15.964;2023-02-01T00:59:22;8.15;;;6.05;;
43996;SDS011;34318;45.818;15.964;2023-02-01T01:01:49;7.45;;;5.55;;
43996;SDS011;34318;45.818;15.964;2023-02-01T01:04:16;10.45;;;5.90;;
43996;SDS011;34318;45.818;15.964;2023-02-01T01:06:44;9.57;;;6.10;;
43996;SDS011;34318;45.818;15.964;2023-02-01T01:09:11;8.73;;;6.18;;
43996;SDS011;34318;45.818;15.964;2023-02-01T01:11:38;7.57;;;6.45;;
43996;SDS011;34318;45.818;15.964;2023-02-01T01:14:06;7.97;;;5.80;;
43996;SDS011;34318;45.818;15.964;2023-02-01T01:16:34;7.28;;;6.50;;
43996;SDS011;34318;45.818;15.964;2023-02-01T01:19:01;12.18;;;6.82;;
43996;SDS011;34318;45.818;15.964;2023-02-01T01:21:28;8.43;;;6.88;;
43996;SDS011;34318;45.818;15.964;2023-02-01T01:23:55;9.18;;;6.25;;
43996;SDS011;34318;45.818;15.964;2023-02-01T01:26:24;8.00;;;6.32;;
43996;SDS011;34318;45.818;15.964;2023-02-01T01:28:52;6.60;;;5.90;;
43996;SDS011;34318;45.818;15.964;2023-02-01T01:31:21;8.00;;;6.82;;
43996;SDS011;34318;45.818;15.964;2023-02-01T01:33:49;7.95;;;6.93;;
43996;SDS011;34318;45.818;15.964;2023-02-01T01:36:17;8.73;;;6.72;;
43996;SDS011;34318;45.818;15.964;2023-02-01T01:38:45;7.50;;;6.55;;
43996;SDS011;34318;45.818;15.964;2023-02-01T01:41:14;8.07;;;6.78;;
43996;SDS011;34318;45.818;15.964;2023-02-01T01:43:49;8.95;;;6.40;;
43996;SDS011;34318;45.818;15.964;2023-02-01T01:46:18;7.53;;;6.72;;
43996;SDS011;34318;45.818;15.964;2023-02-01T01:48:45;7.68;;;6.88;;
43996;SDS011;34318;45.818;15.964;2023-02-01T01:51:15;7.35;;;6.55;;
43996;SDS011;34318;45.818;15.964;2023-02-01T01:56:31;9.13;;;7.07;;
43996;SDS011;34318;45.818;15.964;2023-02-01T01:58:59;10.20;;;7.53;;
43996;SDS011;34318;45.818;15.964;2023-02-01T02:01:27;8.40;;;7.38;;
43996;SDS011;34318;45.818;15.964;2023-02-01T02:03:55;8.35;;;7.55;;
43996;SDS011;34318;45.818;15.964;2023-02-01T02:08:50;9.07;;;7.50;;
43996;SDS011;34318;45.818;15.964;2023-02-01T02:11:17;8.75;;;7.85;;
43996;SDS011;34318;45.818;15.964;2023-02-01T02:13:46;8.68;;;7.38;;
43996;SDS011;34318;45.818;15.964;2023-02-01T02:16:28;9.43;;;7.60;;
43996;SDS011;34318;45.818;15.964;2023-02-01T02:22:07;8.43;;;7.55;;
43996;SDS011;34318;45.818;15.964;2023-02-01T02:32:51;8.13;;;7.30;;
43996;SDS011;34318;45.818;15.964;2023-02-01T02:35:27;8.98;;;7.47;;
43996;SDS011;34318;45.818;15.964;2023-02-01T02:40:45;8.50;;;7.60;;
43996;SDS011;34318;45.818;15.964;2023-02-01T02:43:22;8.50;;;6.82;;
43996;SDS011;34318;45.818;15.964;2023-02-01T02:51:28;9.85;;;8.85;;
43996;SDS011;34318;45.818;15.964;2023-02-01T02:54:20;8.90;;;7.65;;
43996;SDS011;34318;45.818;15.964;2023-02-01T02:57:09;8.30;;;7.47;;
43996;SDS011;34318;45.818;15.964;2023-02-01T02:59:57;8.48;;;7.13;;
43996;SDS011;34318;45.818;15.964;2023-02-01T03:02:45;8.30;;;7.50;;
43996;SDS011;34318;45.818;15.964;2023-02-01T03:05:35;7.78;;;7.00;;
43996;SDS011;34318;45.818;15.964;2023-02-01T03:13:47;8.57;;;7.40;;
43996;SDS011;34318;45.818;15.964;2023-02-01T03:18:38;8.38;;;7.57;;
43996;SDS011;34318;45.818;15.964;2023-02-01T03:21:13;8.98;;;7.72;;
43996;SDS011;34318;45.818;15.964;2023-02-01T03:23:42;9.02;;;8.13;;
43996;SDS011;34318;45.818;15.964;2023-02-01T03:26:11;8.48;;;7.68;;
43996;SDS011;34318;45.818;15.964;2023-02-01T03:28:43;9.52;;;8.20;;
43996;SDS011;34318;45.818;15.964;2023-02-01T03:31:12;8.77;;;7.88;;
43996;SDS011;34318;45.818;15.964;2023-02-01T03:33:40;11.85;;;7.57;;
43996;SDS011;34318;45.818;15.964;2023-02-01T03:46:29;9.40;;;8.40;;
43996;SDS011;34318;45.818;15.964;2023-02-01T03:49:00;8.70;;;7.93;;
43996;SDS011;34318;45.818;15.964;2023-02-01T03:51:29;10.80;;;8.00;;
43996;SDS011;34318;45.818;15.964;2023-02-01T03:53:56;8.52;;;7.68;;
43996;SDS011;34318;45.818;15.964;2023-02-01T03:56:24;9.18;;;8.27;;
43996;SDS011;34318;45.818;15.964;2023-02-01T03:58:52;9.30;;;7.95;;
43996;SDS011;34318;45.818;15.964;2023-02-01T04:01:29;9.52;;;8.52;;
43996;SDS011;34318;45.818;15.964;2023-02-01T04:03:57;9.20;;;8.00;;
43996;SDS011;34318;45.818;15.964;2023-02-01T04:06:24;9.35;;;8.05;;
43996;SDS011;34318;45.818;15.964;2023-02-01T04:08:52;11.07;;;8.65;;
43996;SDS011;34318;45.818;15.964;2023-02-01T04:11:19;10.48;;;8.57;;
43996;SDS011;34318;45.818;15.964;2023-02-01T04:13:46;9.45;;;8.55;;
43996;SDS011;34318;45.818;15.964;2023-02-01T04:16:13;10.07;;;9.07;;
43996;SDS011;34318;45.818;15.964;2023-02-01T04:18:40;8.98;;;8.05;;
43996;SDS011;34318;45.818;15.964;2023-02-01T04:21:07;8.73;;;7.93;;
43996;SDS011;34318;45.818;15.964;2023-02-01T04:23:35;9.20;;;8.30;;
43996;SDS011;34318;45.818;15.964;2023-02-01T04:26:03;8.77;;;7.88;;
43996;SDS011;34318;45.818;15.964;2023-02-01T04:28:31;10.15;;;8.75;;
43996;SDS011;34318;45.818;15.964;2023-02-01T04:30:58;9.52;;;8.50;;
43996;SDS011;34318;45.818;15.964;2023-02-01T04:33:25;8.95;;;8.07;;
43996;SDS011;34318;45.818;15.964;2023-02-01T04:35:52;9.07;;;8.02;;
43996;SDS011;34318;45.818;15.964;2023-02-01T04:38:20;9.82;;;8.82;;
43996;SDS011;34318;45.818;15.964;2023-02-01T04:40:48;9.55;;;8.65;;
43996;SDS011;34318;45.818;15.964;2023-02-01T04:43:16;8.63;;;7.63;;
43996;SDS011;34318;45.818;15.964;2023-02-01T04:45:47;9.68;;;8.77;;
43996;SDS011;34318;45.818;15.964;2023-02-01T04:48:15;9.00;;;8.20;;
43996;SDS011;34318;45.818;15.964;2023-02-01T04:50:43;8.88;;;7.97;;
43996;SDS011;34318;45.818;15.964;2023-02-01T04:53:16;9.00;;;8.10;;
43996;SDS011;34318;45.818;15.964;2023-02-01T04:55:48;9.75;;;8.70;;
43996;SDS011;34318;45.818;15.964;2023-02-01T04:58:16;9.07;;;8.15;;
43996;SDS011;34318;45.818;15.964;2023-02-01T05:00:43;9.25;;;7.93;;
43996;SDS011;34318;45.818;15.964;2023-02-01T05:03:10;8.88;;;7.97;;
43996;SDS011;34318;45.818;15.964;2023-02-01T05:05:37;9.27;;;8.45;;
43996;SDS011;34318;45.818;15.964;2023-02-01T05:08:04;8.80;;;8.00;;
43996;SDS011;34318;45.818;15.964;2023-02-01T05:10:31;8.75;;;7.85;;
43996;SDS011;34318;45.818;15.964;2023-02-01T05:12:59;8.77;;;7.80;;
43996;SDS011;34318;45.818;15.964;2023-02-01T05:15:45;8.93;;;8.05;;
43996;SDS011;34318;45.818;15.964;2023-02-01T05:18:12;9.43;;;8.50;;
43996;SDS011;34318;45.818;15.964;2023-02-01T05:20:39;8.82;;;7.90;;
43996;SDS011;34318;45.818;15.964;2023-02-01T05:23:07;8.43;;;7.63;;
43996;SDS011;34318;45.818;15.964;2023-02-01T05:25:34;9.20;;;8.30;;
43996;SDS011;34318;45.818;15.964;2023-02-01T05:28:01;9.18;;;8.13;;
43996;SDS011;34318;45.818;15.964;2023-02-01T05:30:28;9.88;;;8.82;;
43996;SDS011;34318;45.818;15.964;2023-02-01T05:32:55;13.55;;;8.65;;
43996;SDS011;34318;45.818;15.964;2023-02-01T05:35:23;9.25;;;8.35;;
43996;SDS011;34318;45.818;15.964;2023-02-01T05:37:50;8.57;;;7.72;;
43996;SDS011;34318;45.818;15.964;2023-02-01T05:40:17;7.93;;;7.13;;
43996;SDS011;34318;45.818;15.964;2023-02-01T05:42:44;9.27;;;8.38;;
43996;SDS011;34318;45.818;15.964;2023-02-01T05:45:11;10.20;;;8.13;;
43996;SDS011;34318;45.818;15.964;2023-02-01T05:47:39;9.15;;;8.25;;
43996;SDS011;34318;45.818;15.964;2023-02-01T05:50:06;9.15;;;7.63;;
43996;SDS011;34318;45.818;15.964;2023-02-01T05:52:33;8.73;;;7.90;;
43996;SDS011;34318;45.818;15.964;2023-02-01T05:55:01;8.52;;;7.65;;
43996;SDS011;34318;45.818;15.964;2023-02-01T05:57:28;9.30;;;8.35;;
43996;SDS011;34318;45.818;15.964;2023-02-01T05:59:56;8.43;;;7.55;;
43996;SDS011;34318;45.818;15.964;2023-02-01T06:02:25;8.73;;;7.93;;
43996;SDS011;34318;45.818;15.964;2023-02-01T06:04:52;9.80;;;8.05;;
43996;SDS011;34318;45.818;15.964;2023-02-01T06:07:20;10.13;;;7.63;;
43996;SDS011;34318;45.818;15.964;2023-02-01T06:09:48;11.45;;;8.52;;
43996;SDS011;34318;45.818;15.964;2023-02-01T06:12:15;11.15;;;8.65;;
43996;SDS011;34318;45.818;15.964;2023-02-01T06:14:42;9.65;;;7.70;;
43996;SDS011;34318;45.818;15.964;2023-02-01T06:17:09;10.88;;;7.80;;
43996;SDS011;34318;45.818;15.964;2023-02-01T06:19:36;11.82;;;8.25;;
43996;SDS011;34318;45.818;15.964;2023-02-01T06:22:04;10.88;;;8.70;;
43996;SDS011;34318;45.818;15.964;2023-02-01T06:24:32;12.45;;;7.65;;
43996;SDS011;34318;45.818;15.964;2023-02-01T06:26:59;11.07;;;8.15;;
43996;SDS011;34318;45.818;15.964;2023-02-01T06:29:26;11.23;;;8.68;;
43996;SDS011;34318;45.818;15.964;2023-02-01T06:31:53;29.17;;;9.15;;
43996;SDS011;34318;45.818;15.964;2023-02-01T06:34:21;13.20;;;8.75;;
43996;SDS011;34318;45.818;15.964;2023-02-01T06:36:49;12.32;;;8.82;;
43996;SDS011;34318;45.818;15.964;2023-02-01T06:39:16;14.38;;;8.52;;
43996;SDS011;34318;45.818;15.964;2023-02-01T06:41:47;17.25;;;9.32;;
43996;SDS011;34318;45.818;15.964;2023-02-01T06:44:15;11.77;;;8.60;;
43996;SDS011;34318;45.818;15.964;2023-02-01T06:46:43;11.80;;;8.82;;
43996;SDS011;34318;45.818;15.964;2023-02-01T06:49:10;11.90;;;8.52;;
43996;SDS011;34318;45.818;15.964;2023-02-01T06:51:37;10.45;;;7.78;;
43996;SDS011;34318;45.818;15.964;2023-02-01T06:54:04;13.35;;;9.40;;
43996;SDS011;34318;45.818;15.964;2023-02-01T06:56:31;12.10;;;9.38;;
43996;SDS011;34318;45.818;15.964;2023-02-01T06:58:59;13.43;;;8.48;;
43996;SDS011;34318;45.818;15.964;2023-02-01T07:01:26;13.52;;;9.45;;
43996;SDS011;34318;45.818;15.964;2023-02-01T07:03:53;13.82;;;9.93;;
43996;SDS011;34318;45.818;15.964;2023-02-01T07:06:21;22.17;;;9.90;;
43996;SDS011;34318;45.818;15.964;2023-02-01T07:08:48;15.70;;;9.38;;
43996;SDS011;34318;45.818;15.964;2023-02-01T07:11:16;19.08;;;10.15;;
43996;SDS011;34318;45.818;15.964;2023-02-01T07:13:44;15.38;;;9.55;;
43996;SDS011;34318;45.818;15.964;2023-02-01T07:16:13;12.35;;;9.80;;
43996;SDS011;34318;45.818;15.964;2023-02-01T07:18:40;14.75;;;9.55;;
43996;SDS011;34318;45.818;15.964;2023-02-01T07:21:07;15.52;;;9.15;;
43996;SDS011;34318;45.818;15.964;2023-02-01T07:23:35;13.90;;;9.13;;
43996;SDS011;34318;45.818;15.964;2023-02-01T07:26:03;12.68;;;8.93;;
43996;SDS011;34318;45.818;15.964;2023-02-01T07:28:31;14.15;;;8.60;;
43996;SDS011;34318;45.818;15.964;2023-02-01T07:31:05;13.68;;;9.50;;
43996;SDS011;34318;45.818;15.964;2023-02-01T07:33:33;14.55;;;9.25;;
43996;SDS011;34318;45.818;15.964;2023-02-01T07:36:02;15.00;;;9.57;;
43996;SDS011;34318;45.818;15.964;2023-02-01T07:38:29;13.27;;;8.45;;
43996;SDS011;34318;45.818;15.964;2023-02-01T07:40:57;13.63;;;9.50;;
43996;SDS011;34318;45.818;15.964;2023-02-01T07:43:26;11.95;;;8.73;;
43996;SDS011;34318;45.818;15.964;2023-02-01T07:45:53;11.60;;;9.07;;
43996;SDS011;34318;45.818;15.964;2023-02-01T07:48:21;14.18;;;9.57;;
43996;SDS011;34318;45.818;15.964;2023-02-01T07:50:56;16.30;;;8.88;;
43996;SDS011;34318;45.818;15.964;2023-02-01T07:53:23;10.85;;;8.68;;
43996;SDS011;34318;45.818;15.964;2023-02-01T07:55:50;13.88;;;9.63;;
43996;SDS011;34318;45.818;15.964;2023-02-01T07:58:18;10.65;;;8.85;;
43996;SDS011;34318;45.818;15.964;2023-02-01T08:00:45;13.18;;;9.07;;
43996;SDS011;34318;45.818;15.964;2023-02-01T08:03:31;12.02;;;9.60;;
43996;SDS011;34318;45.818;15.964;2023-02-01T08:05:58;13.30;;;8.90;;
43996;SDS011;34318;45.818;15.964;2023-02-01T08:08:25;11.80;;;9.18;;
43996;SDS011;34318;45.818;15.964;2023-02-01T08:11:03;10.57;;;9.07;;
43996;SDS011;34318;45.818;15.964;2023-02-01T08:13:31;10.43;;;8.90;;
43996;SDS011;34318;45.818;15.964;2023-02-01T08:15:58;14.98;;;9.65;;
43996;SDS011;34318;45.818;15.964;2023-02-01T08:18:26;10.10;;;9.02;;
43996;SDS011;34318;45.818;15.964;2023-02-01T08:20:53;10.25;;;8.25;;
43996;SDS011;34318;45.818;15.964;2023-02-01T08:23:21;11.27;;;9.00;;
43996;SDS011;34318;45.818;15.964;2023-02-01T08:25:48;10.60;;;9.40;;
43996;SDS011;34318;45.818;15.964;2023-02-01T08:28:16;13.18;;;9.75;;
43996;SDS011;34318;45.818;15.964;2023-02-01T08:30:43;18.77;;;10.98;;
43996;SDS011;34318;45.818;15.964;2023-02-01T08:33:10;14.73;;;9.88;;
43996;SDS011;34318;45.818;15.964;2023-02-01T08:35:37;21.95;;;9.75;;
43996;SDS011;34318;45.818;15.964;2023-02-01T08:38:09;15.80;;;9.88;;
43996;SDS011;34318;45.818;15.964;2023-02-01T08:40:36;12.25;;;10.23;;
43996;SDS011;34318;45.818;15.964;2023-02-01T08:43:03;18.00;;;9.73;;
43996;SDS011;34318;45.818;15.964;2023-02-01T08:45:31;11.32;;;9.70;;
43996;SDS011;34318;45.818;15.964;2023-02-01T08:47:58;11.43;;;10.18;;
43996;SDS011;34318;45.818;15.964;2023-02-01T08:50:25;14.85;;;9.27;;
43996;SDS011;34318;45.818;15.964;2023-02-01T08:52:52;11.98;;;10.30;;
43996;SDS011;34318;45.818;15.964;2023-02-01T08:55:20;16.05;;;9.60;;
43996;SDS011;34318;45.818;15.964;2023-02-01T08:57:47;10.13;;;9.05;;
43996;SDS011;34318;45.818;15.964;2023-02-01T09:00:15;16.42;;;9.00;;
43996;SDS011;34318;45.818;15.964;2023-02-01T09:02:43;11.82;;;10.00;;
43996;SDS011;34318;45.818;15.964;2023-02-01T09:05:10;12.57;;;10.32;;
43996;SDS011;34318;45.818;15.964;2023-02-01T09:07:38;13.02;;;10.43;;
43996;SDS011;34318;45.818;15.964;2023-02-01T09:10:05;15.93;;;11.30;;
43996;SDS011;34318;45.818;15.964;2023-02-01T09:12:33;18.58;;;13.05;;
43996;SDS011;34318;45.818;15.964;2023-02-01T09:15:01;15.15;;;11.45;;
43996;SDS011;34318;45.818;15.964;2023-02-01T09:17:29;14.73;;;11.10;;
43996;SDS011;34318;45.818;15.964;2023-02-01T09:19:56;13.05;;;10.65;;
43996;SDS011;34318;45.818;15.964;2023-02-01T09:22:23;16.65;;;11.65;;
43996;SDS011;34318;45.818;15.964;2023-02-01T09:24:52;15.85;;;10.63;;
43996;SDS011;34318;45.818;15.964;2023-02-01T09:27:20;20.17;;;11.60;;
43996;SDS011;34318;45.818;15.964;2023-02-01T09:29:48;13.13;;;9.93;;
43996;SDS011;34318;45.818;15.964;2023-02-01T09:32:21;15.63;;;11.55;;
43996;SDS011;34318;45.818;15.964;2023-02-01T09:34:50;15.23;;;10.98;;
43996;SDS011;34318;45.818;15.964;2023-02-01T09:37:17;16.50;;;11.95;;
43996;SDS011;34318;45.818;15.964;2023-02-01T09:39:45;13.88;;;10.68;;
43996;SDS011;34318;45.818;15.964;2023-02-01T09:47:13;12.90;;;10.35;;
43996;SDS011;34318;45.818;15.964;2023-02-01T09:50:26;15.18;;;11.25;;
43996;SDS011;34318;45.818;15.964;2023-02-01T09:52:52;12.70;;;10.15;;
43996;SDS011;34318;45.818;15.964;2023-02-01T09:55:32;12.55;;;10.15;;
43996;SDS011;34318;45.818;15.964;2023-02-01T09:58:07;13.52;;;10.90;;
43996;SDS011;34318;45.818;15.964;2023-02-01T10:00:36;14.98;;;10.88;;
43996;SDS011;34318;45.818;15.964;2023-02-01T10:03:04;11.90;;;9.57;;
43996;SDS011;34318;45.818;15.964;2023-02-01T10:08:11;13.05;;;9.43;;
43996;SDS011;34318;45.818;15.964;2023-02-01T10:10:46;12.68;;;10.40;;
43996;SDS011;34318;45.818;15.964;2023-02-01T10:18:40;24.90;;;14.07;;
43996;SDS011;34318;45.818;15.964;2023-02-01T10:21:10;39.60;;;19.63;;
43996;SDS011;34318;45.818;15.964;2023-02-01T10:23:46;58.05;;;28.55;;
43996;SDS011;34318;45.818;15.964;2023-02-01T10:26:22;74.30;;;36.78;;
43996;SDS011;34318;45.818;15.964;2023-02-01T10:28:51;63.25;;;30.92;;
43996;SDS011;34318;45.818;15.964;2023-02-01T10:31:18;53.15;;;27.42;;
43996;SDS011;34318;45.818;15.964;2023-02-01T10:33:48;56.17;;;27.58;;
43996;SDS011;34318;45.818;15.964;2023-02-01T10:38:57;30.60;;;19.20;;
43996;SDS011;34318;45.818;15.964;2023-02-01T10:41:28;39.33;;;18.88;;
43996;SDS011;34318;45.818;15.964;2023-02-01T10:43:57;29.33;;;16.40;;
43996;SDS011;34318;45.818;15.964;2023-02-01T10:46:25;23.02;;;14.93;;
43996;SDS011;34318;45.818;15.964;2023-02-01T10:48:53;24.67;;;13.02;;
43996;SDS011;34318;45.818;15.964;2023-02-01T10:51:26;25.17;;;13.65;;
43996;SDS011;34318;45.818;15.964;2023-02-01T10:54:08;21.98;;;12.57;;
43996;SDS011;34318;45.818;15.964;2023-02-01T10:56:38;22.65;;;12.68;;
43996;SDS011;34318;45.818;15.964;2023-02-01T10:59:06;18.42;;;11.88;;
43996;SDS011;34318;45.818;15.964;2023-02-01T11:01:41;19.20;;;12.13;;
43996;SDS011;34318;45.818;15.964;2023-02-01T11:04:12;15.10;;;10.35;;
43996;SDS011;34318;45.818;15.964;2023-02-01T11:06:41;16.90;;;11.38;;
43996;SDS011;34318;45.818;15.964;2023-02-01T11:09:10;16.48;;;10.15;;
43996;SDS011;34318;45.818;15.964;2023-02-01T11:16:56;13.77;;;10.32;;
43996;SDS011;34318;45.818;15.964;2023-02-01T11:19:24;13.25;;;10.13;;
43996;SDS011;34318;45.818;15.964;2023-02-01T11:21:51;15.93;;;9.88;;
43996;SDS011;34318;45.818;15.964;2023-02-01T11:24:26;13.77;;;9.90;;
43996;SDS011;34318;45.818;15.964;2023-02-01T11:26:58;14.15;;;9.95;;
43996;SDS011;34318;45.818;15.964;2023-02-01T11:29:26;16.45;;;9.20;;
43996;SDS011;34318;45.818;15.964;2023-02-01T11:31:57;13.80;;;9.25;;
43996;SDS011;34318;45.818;15.964;2023-02-01T11:34:26;15.85;;;9.02;;
43996;SDS011;34318;45.818;15.964;2023-02-01T11:36:56;11.63;;;8.88;;
43996;SDS011;34318;45.818;15.964;2023-02-01T11:39:34;13.05;;;8.43;;
43996;SDS011;34318;45.818;15.964;2023-02-01T11:42:05;11.20;;;8.45;;
43996;SDS011;34318;45.818;15.964;2023-02-01T11:44:39;12.65;;;8.55;;
43996;SDS011;34318;45.818;15.964;2023-02-01T11:49:47;13.18;;;8.18;;
43996;SDS011;34318;45.818;15.964;2023-02-01T11:52:20;11.15;;;8.23;;
43996;SDS011;34318;45.818;15.964;2023-02-01T12:00:26;12.57;;;7.95;;
43996;SDS011;34318;45.818;15.964;2023-02-01T12:02:58;10.93;;;7.50;;
43996;SDS011;34318;45.818;15.964;2023-02-01T12:05:32;10.23;;;7.40;;
43996;SDS011;34318;45.818;15.964;2023-02-01T12:08:21;10.32;;;7.80;;
43996;SDS011;34318;45.818;15.964;2023-02-01T12:10:54;8.85;;;7.32;;
43996;SDS011;34318;45.818;15.964;2023-02-01T12:13:34;9.18;;;6.72;;
43996;SDS011;34318;45.818;15.964;2023-02-01T12:16:19;10.02;;;7.13;;
43996;SDS011;34318;45.818;15.964;2023-02-01T12:18:53;9.57;;;7.63;;
43996;SDS011;34318;45.818;15.964;2023-02-01T12:27:10;11.32;;;8.07;;
43996;SDS011;34318;45.818;15.964;2023-02-01T12:29:50;12.68;;;9.75;;
43996;SDS011;34318;45.818;15.964;2023-02-01T12:32:25;11.43;;;8.77;;
43996;SDS011;34318;45.818;15.964;2023-02-01T12:37:53;9.20;;;7.65;;
43996;SDS011;34318;45.818;15.964;2023-02-01T12:42:57;13.68;;;9.20;;
43996;SDS011;34318;45.818;15.964;2023-02-01T12:45:28;11.48;;;8.63;;
43996;SDS011;34318;45.818;15.964;2023-02-01T12:50:42;15.68;;;8.93;;
43996;SDS011;34318;45.818;15.964;2023-02-01T12:53:14;11.25;;;7.95;;
43996;SDS011;34318;45.818;15.964;2023-02-01T12:55:47;17.40;;;8.65;;
43996;SDS011;34318;45.818;15.964;2023-02-01T12:58:18;13.15;;;8.40;;
43996;SDS011;34318;45.818;15.964;2023-02-01T13:00:52;12.45;;;8.23;;
43996;SDS011;34318;45.818;15.964;2023-02-01T13:06:29;12.07;;;7.93;;
43996;SDS011;34318;45.818;15.964;2023-02-01T13:11:33;10.35;;;8.68;;
43996;SDS011;34318;45.818;15.964;2023-02-01T13:14:03;14.40;;;8.88;;
43996;SDS011;34318;45.818;15.964;2023-02-01T13:16:35;11.70;;;8.00;;
43996;SDS011;34318;45.818;15.964;2023-02-01T13:21:32;11.20;;;8.57;;
43996;SDS011;34318;45.818;15.964;2023-02-01T13:24:00;13.95;;;8.65;;
43996;SDS011;34318;45.818;15.964;2023-02-01T13:26:28;12.82;;;7.78;;
43996;SDS011;34318;45.818;15.964;2023-02-01T13:34:28;11.93;;;8.82;;
43996;SDS011;34318;45.818;15.964;2023-02-01T13:42:41;12.65;;;8.63;;
43996;SDS011;34318;45.818;15.964;2023-02-01T13:45:17;17.95;;;8.35;;
43996;SDS011;34318;45.818;15.964;2023-02-01T13:47:48;11.65;;;7.10;;
43996;SDS011;34318;45.818;15.964;2023-02-01T13:50:26;10.30;;;8.27;;
43996;SDS011;34318;45.818;15.964;2023-02-01T13:53:01;8.52;;;7.63;;
43996;SDS011;34318;45.818;15.964;2023-02-01T13:55:34;16.63;;;8.73;;
43996;SDS011;34318;45.818;15.964;2023-02-01T14:00:39;9.95;;;8.55;;
43996;SDS011;34318;45.818;15.964;2023-02-01T14:03:44;12.40;;;8.73;;
43996;SDS011;34318;45.818;15.964;2023-02-01T14:06:05;13.48;;;8.70;;
43996;SDS011;34318;45.818;15.964;2023-02-01T14:08:42;13.00;;;8.65;;
43996;SDS011;34318;45.818;15.964;2023-02-01T14:13:55;17.58;;;9.13;;
43996;SDS011;34318;45.818;15.964;2023-02-01T14:16:33;11.55;;;8.02;;
43996;SDS011;34318;45.818;15.964;2023-02-01T14:19:00;10.75;;;8.13;;
43996;SDS011;34318;45.818;15.964;2023-02-01T14:21:29;14.57;;;9.15;;
43996;SDS011;34318;45.818;15.964;2023-02-01T14:23:58;13.25;;;8.68;;
43996;SDS011;34318;45.818;15.964;2023-02-01T14:28:55;21.50;;;9.27;;
43996;SDS011;34318;45.818;15.964;2023-02-01T14:31:31;12.85;;;8.70;;
43996;SDS011;34318;45.818;15.964;2023-02-01T14:34:01;13.68;;;8.88;;
43996;SDS011;34318;45.818;15.964;2023-02-01T14:37:13;14.45;;;9.13;;
43996;SDS011;34318;45.818;15.964;2023-02-01T14:39:24;11.95;;;8.93;;
43996;SDS011;34318;45.818;15.964;2023-02-01T14:41:53;13.18;;;8.82;;
43996;SDS011;34318;45.818;15.964;2023-02-01T14:44:29;12.52;;;8.88;;
43996;SDS011;34318;45.818;15.964;2023-02-01T14:49:30;16.40;;;9.48;;
43996;SDS011;34318;45.818;15.964;2023-02-01T14:51:59;17.08;;;9.65;;
43996;SDS011;34318;45.818;15.964;2023-02-01T14:54:29;16.65;;;8.88;;
43996;SDS011;34318;45.818;15.964;2023-02-01T14:56:56;15.65;;;9.40;;
43996;SDS011;34318;45.818;15.964;2023-02-01T14:59:24;12.73;;;8.82;;
43996;SDS011;34318;45.818;15.964;2023-02-01T15:01:53;14.15;;;8.80;;
43996;SDS011;34318;45.818;15.964;2023-02-01T15:04:24;14.07;;;9.45;;
43996;SDS011;34318;45.818;15.964;2023-02-01T15:06:53;17.42;;;9.85;;
43996;SDS011;34318;45.818;15.964;2023-02-01T15:17:39;16.63;;;9.77;;
43996;SDS011;34318;45.818;15.964;2023-02-01T15:22:39;13.32;;;9.00;;
43996;SDS011;34318;45.818;15.964;2023-02-01T15:25:28;14.32;;;8.60;;
43996;SDS011;34318;45.818;15.964;2023-02-01T15:27:54;15.93;;;8.75;;
43996;SDS011;34318;45.818;15.964;2023-02-01T15:30:27;12.52;;;9.07;;
43996;SDS011;34318;45.818;15.964;2023-02-01T15:33:05;14.88;;;9.18;;
43996;SDS011;34318;45.818;15.964;2023-02-01T15:35:38;12.38;;;9.43;;
43996;SDS011;34318;45.818;15.964;2023-02-01T15:43:21;16.55;;;9.15;;
43996;SDS011;34318;45.818;15.964;2023-02-01T15:45:48;12.80;;;8.82;;
43996;SDS011;34318;45.818;15.964;2023-02-01T15:48:20;15.35;;;8.35;;
43996;SDS011;34318;45.818;15.964;2023-02-01T15:50:48;11.45;;;8.70;;
43996;SDS011;34318;45.818;15.964;2023-02-01T15:53:17;11.18;;;8.32;;
43996;SDS011;34318;45.818;15.964;2023-02-01T15:55:46;8.98;;;7.50;;
43996;SDS011;34318;45.818;15.964;2023-02-01T15:58:16;13.00;;;8.50;;
43996;SDS011;34318;45.818;15.964;2023-02-01T16:00:45;14.27;;;8.02;;
43996;SDS011;34318;45.818;15.964;2023-02-01T16:06:05;9.90;;;8.27;;
43996;SDS011;34318;45.818;15.964;2023-02-01T16:08:33;9.98;;;7.72;;
43996;SDS011;34318;45.818;15.964;2023-02-01T16:13:36;19.63;;;8.73;;
43996;SDS011;34318;45.818;15.964;2023-02-01T16:16:03;12.27;;;8.75;;
43996;SDS011;34318;45.818;15.964;2023-02-01T16:18:34;13.15;;;7.90;;
43996;SDS011;34318;45.818;15.964;2023-02-01T16:21:01;10.00;;;7.32;;
43996;SDS011;34318;45.818;15.964;2023-02-01T16:23:28;13.02;;;8.20;;
43996;SDS011;34318;45.818;15.964;2023-02-01T16:25:57;12.10;;;7.63;;
43996;SDS011;34318;45.818;15.964;2023-02-01T16:28:24;10.23;;;8.15;;
43996;SDS011;34318;45.818;15.964;2023-02-01T16:30:52;11.73;;;7.13;;
43996;SDS011;34318;45.818;15.964;2023-02-01T16:33:20;13.27;;;7.53;;
43996;SDS011;34318;45.818;15.964;2023-02-01T16:35:48;10.20;;;7.75;;
43996;SDS011;34318;45.818;15.964;2023-02-01T16:38:16;10.30;;;7.60;;
43996;SDS011;34318;45.818;15.964;2023-02-01T16:40:46;10.65;;;7.72;;
43996;SDS011;34318;45.818;15.964;2023-02-01T16:43:23;11.93;;;7.78;;
43996;SDS011;34318;45.818;15.964;2023-02-01T16:45:52;15.00;;;7.70;;
43996;SDS011;34318;45.818;15.964;2023-02-01T16:48:26;13.65;;;7.97;;
43996;SDS011;34318;45.818;15.964;2023-02-01T16:50:54;10.98;;;7.07;;
43996;SDS011;34318;45.818;15.964;2023-02-01T16:53:22;13.25;;;7.70;;
43996;SDS011;34318;45.818;15.964;2023-02-01T16:55:50;8.60;;;7.32;;